createdAt,value
2018-11-10T00:00:16.952Z,8.80
2018-11-10T00:02:46.432Z,8.90
2018-11-10T00:05:15.946Z,8.90
2018-11-10T00:07:45.269Z,8.80
2018-11-10T00:10:14.542Z,8.90
2018-11-10T00:12:43.816Z,9.10
2018-11-10T00:15:13.913Z,8.90
2018-11-10T00:17:43.132Z,8.80
2018-11-10T00:20:12.148Z,8.80
2018-11-10T00:22:42.128Z,8.80
2018-11-10T00:25:12.545Z,8.70
2018-11-10T00:27:42.525Z,8.70
2018-11-10T00:30:13.713Z,8.70
2018-11-10T00:32:43.536Z,8.80
2018-11-10T00:35:12.861Z,8.80
2018-11-10T00:37:42.057Z,8.80
2018-11-10T00:40:14.604Z,8.70
2018-11-10T00:42:44.188Z,8.70
2018-11-10T00:45:13.440Z,8.80
2018-11-10T00:47:42.740Z,8.70
2018-11-10T00:50:11.921Z,8.60
2018-11-10T00:52:41.029Z,8.50
2018-11-10T00:55:10.356Z,8.50
2018-11-10T00:57:39.628Z,8.50
2018-11-10T01:00:10.525Z,8.50
2018-11-10T01:02:39.868Z,8.50
2018-11-10T01:05:09.069Z,8.60
2018-11-10T01:07:38.365Z,8.40
2018-11-10T01:10:09.149Z,8.50
2018-11-10T01:12:38.192Z,8.60
2018-11-10T01:15:09.284Z,8.40
2018-11-10T01:17:38.637Z,8.50
2018-11-10T01:20:08.665Z,8.50
2018-11-10T01:22:37.932Z,8.60
2018-11-10T01:25:08.326Z,8.60
2018-11-10T01:27:37.595Z,8.40
2018-11-10T01:30:09.960Z,8.50
2018-11-10T01:32:39.039Z,8.40
2018-11-10T01:35:08.346Z,8.40
2018-11-10T01:37:37.420Z,8.40
2018-11-10T01:40:07.770Z,8.60
2018-11-10T01:42:36.945Z,8.50
2018-11-10T01:45:08.124Z,8.50
2018-11-10T01:47:37.421Z,8.60
2018-11-10T01:50:07.388Z,8.60
2018-11-10T01:52:36.521Z,8.40
2018-11-10T01:55:05.785Z,8.20
2018-11-10T01:57:34.925Z,8.30
2018-11-10T02:00:04.080Z,8.50
2018-11-10T02:02:33.184Z,8.30
2018-11-10T02:05:02.297Z,8.30
2018-11-10T02:07:31.570Z,8.40
2018-11-10T02:10:00.689Z,8.50
2018-11-10T02:12:29.860Z,8.50
2018-11-10T02:14:59.084Z,8.60
2018-11-10T02:17:28.285Z,8.50
2018-11-10T02:19:57.348Z,8.50
2018-11-10T02:22:26.672Z,8.60
2018-11-10T02:24:55.856Z,8.50
2018-11-10T02:27:25.519Z,8.40
2018-11-10T02:29:55.624Z,8.50
2018-11-10T02:32:24.804Z,8.50
2018-11-10T02:34:53.788Z,8.60
2018-11-10T02:37:22.860Z,8.50
2018-11-10T02:39:51.877Z,8.70
2018-11-10T02:42:20.945Z,8.70
2018-11-10T02:44:50.082Z,8.70
2018-11-10T02:47:19.041Z,8.70
2018-11-10T02:49:48.105Z,8.60
2018-11-10T02:52:17.150Z,8.70
2018-11-10T02:54:46.208Z,8.60
2018-11-10T02:57:15.237Z,8.50
2018-11-10T02:59:44.328Z,8.50
2018-11-10T03:02:13.365Z,8.40
2018-11-10T03:04:42.521Z,8.40
2018-11-10T03:07:11.585Z,8.40
2018-11-10T03:09:41.180Z,8.30
2018-11-10T03:12:10.440Z,8.50
2018-11-10T03:14:39.597Z,8.30
2018-11-10T03:17:08.720Z,8.40
2018-11-10T03:19:37.781Z,8.30
2018-11-10T03:22:07.104Z,8.40
2018-11-10T03:24:36.304Z,8.60
2018-11-10T03:27:05.576Z,8.30
2018-11-10T03:29:34.821Z,8.30
2018-11-10T03:32:03.972Z,8.50
2018-11-10T03:34:33.097Z,8.50
2018-11-10T03:37:02.189Z,8.50
2018-11-10T03:39:31.361Z,8.50
2018-11-10T03:42:00.449Z,8.40
2018-11-10T03:44:29.524Z,8.50
2018-11-10T03:46:58.672Z,8.60
2018-11-10T03:49:27.764Z,8.50
2018-11-10T03:51:56.841Z,8.40
2018-11-10T03:54:25.960Z,8.40
2018-11-10T03:56:55.024Z,8.30
2018-11-10T03:59:24.157Z,8.40
2018-11-10T04:01:53.216Z,8.30
2018-11-10T04:04:22.448Z,8.30
2018-11-10T04:06:51.510Z,8.30
2018-11-10T04:09:20.738Z,8.30
2018-11-10T04:11:50.042Z,8.40
2018-11-10T04:14:19.232Z,8.40
2018-11-10T04:16:48.329Z,8.50
2018-11-10T04:19:17.388Z,8.60
2018-11-10T04:21:46.617Z,8.40
2018-11-10T04:24:15.688Z,8.30
2018-11-10T04:26:44.805Z,8.00
2018-11-10T04:29:13.908Z,7.90
2018-11-10T04:31:43.072Z,8.00
2018-11-10T04:34:12.193Z,8.10
2018-11-10T04:36:41.197Z,8.30
2018-11-10T04:39:10.285Z,8.40
2018-11-10T04:41:39.448Z,8.50
2018-11-10T04:44:09.593Z,8.50
2018-11-10T04:46:38.972Z,8.40
2018-11-10T04:49:08.092Z,8.40
2018-11-10T04:51:37.301Z,8.30
2018-11-10T04:54:06.621Z,8.20
2018-11-10T04:56:35.806Z,8.30
2018-11-10T04:59:05.065Z,8.50
2018-11-10T05:01:34.340Z,8.40
2018-11-10T05:04:03.579Z,8.50
2018-11-10T05:06:32.784Z,8.60
2018-11-10T05:09:01.997Z,8.40
2018-11-10T05:11:31.175Z,8.40
2018-11-10T05:14:00.180Z,8.20
2018-11-10T05:16:29.237Z,8.20
2018-11-10T05:18:58.262Z,8.00
2018-11-10T05:21:27.141Z,8.00
2018-11-10T05:23:56.449Z,8.10
2018-11-10T05:26:25.440Z,8.20
2018-11-10T05:28:54.520Z,8.20
2018-11-10T05:31:23.633Z,8.10
2018-11-10T05:33:52.709Z,8.20
2018-11-10T05:36:21.725Z,8.30
2018-11-10T05:38:50.824Z,8.30
2018-11-10T05:41:19.885Z,8.40
2018-11-10T05:43:49.122Z,8.30
2018-11-10T05:46:18.381Z,8.20
2018-11-10T05:48:47.501Z,8.10
2018-11-10T05:51:16.677Z,8.20
2018-11-10T05:53:45.797Z,8.20
2018-11-10T05:56:14.897Z,8.10
2018-11-10T05:58:43.852Z,8.10
2018-11-10T06:01:12.977Z,8.20
2018-11-10T06:03:42.051Z,8.10
2018-11-10T06:06:11.168Z,8.10
2018-11-10T06:08:40.163Z,8.20
2018-11-10T06:11:09.129Z,8.20
2018-11-10T06:13:38.149Z,8.10
2018-11-10T06:16:07.283Z,8.00
2018-11-10T06:18:36.455Z,8.00
2018-11-10T06:21:05.767Z,8.20
2018-11-10T06:23:34.909Z,7.90
2018-11-10T06:26:04.239Z,7.80
2018-11-10T06:28:33.418Z,7.70
2018-11-10T06:31:02.524Z,7.70
2018-11-10T06:33:31.741Z,7.70
2018-11-10T06:36:00.903Z,7.80
2018-11-10T06:38:30.120Z,7.80
2018-11-10T06:40:59.392Z,7.90
2018-11-10T06:43:28.493Z,7.90
2018-11-10T06:45:57.647Z,7.90
2018-11-10T06:48:28.249Z,7.90
2018-11-10T06:50:57.445Z,8.00
2018-11-10T06:53:26.533Z,8.00
2018-11-10T06:55:56.166Z,7.90
2018-11-10T06:58:27.334Z,8.10
2018-11-10T07:00:56.485Z,8.00
2018-11-10T07:03:25.586Z,8.10
2018-11-10T07:05:54.641Z,8.00
2018-11-10T07:08:23.765Z,7.90
2018-11-10T07:10:52.831Z,7.90
2018-11-10T07:13:21.956Z,7.70
2018-11-10T07:15:51.058Z,7.80
2018-11-10T07:18:20.013Z,7.90
2018-11-10T07:20:49.040Z,8.00
2018-11-10T07:23:18.006Z,8.10
2018-11-10T07:25:47.129Z,8.20
2018-11-10T07:28:16.217Z,8.20
2018-11-10T07:30:45.284Z,8.00
2018-11-10T07:33:14.305Z,8.10
2018-11-10T07:35:43.513Z,8.10
2018-11-10T07:38:12.605Z,8.10
2018-11-10T07:40:41.589Z,7.90
2018-11-10T07:43:10.878Z,8.00
2018-11-10T07:45:40.091Z,7.90
2018-11-10T07:48:09.266Z,8.10
2018-11-10T07:50:38.493Z,8.00
2018-11-10T07:53:07.756Z,7.90
2018-11-10T07:55:36.992Z,8.00
2018-11-10T07:58:06.796Z,7.90
2018-11-10T08:00:35.860Z,7.90
2018-11-10T08:03:05.189Z,8.00
2018-11-10T08:05:34.252Z,7.80
2018-11-10T08:08:03.485Z,7.90
2018-11-10T08:10:32.593Z,8.20
2018-11-10T08:13:01.749Z,8.20
2018-11-10T08:15:30.975Z,8.40
2018-11-10T08:18:00.137Z,8.50
2018-11-10T08:20:29.411Z,8.50
2018-11-10T08:22:58.541Z,8.60
2018-11-10T08:25:27.657Z,8.70
2018-11-10T08:27:56.752Z,8.90
2018-11-10T08:30:25.920Z,8.90
2018-11-10T08:32:55.049Z,9.00
2018-11-10T08:35:27.714Z,9.20
2018-11-10T08:37:56.921Z,9.10
2018-11-10T08:40:26.000Z,9.20
2018-11-10T08:42:55.117Z,9.20
2018-11-10T08:45:24.421Z,9.20
2018-11-10T08:47:53.580Z,9.20
2018-11-10T08:50:22.813Z,9.10
2018-11-10T08:52:51.887Z,9.20
2018-11-10T08:55:21.097Z,9.20
2018-11-10T08:57:50.306Z,9.30
2018-11-10T09:00:19.465Z,9.40
2018-11-10T09:02:48.597Z,9.40
2018-11-10T09:05:17.657Z,9.40
2018-11-10T09:07:46.789Z,9.50
2018-11-10T09:10:15.749Z,9.50
2018-11-10T09:12:44.869Z,9.70
2018-11-10T09:15:15.281Z,9.60
2018-11-10T09:17:44.671Z,9.60
2018-11-10T09:20:15.781Z,9.80
2018-11-10T09:22:45.236Z,9.90
2018-11-10T09:25:15.706Z,10.10
2018-11-10T09:27:44.865Z,10.30
2018-11-10T09:30:15.221Z,10.20
2018-11-10T09:32:44.486Z,10.10
2018-11-10T09:35:24.017Z,9.60
2018-11-10T09:37:53.120Z,9.50
2018-11-10T09:40:22.338Z,9.40
2018-11-10T09:42:51.386Z,9.20
2018-11-10T09:45:20.726Z,9.30
2018-11-10T09:47:49.780Z,9.10
2018-11-10T09:50:21.606Z,9.30
2018-11-10T09:52:51.053Z,9.20
2018-11-10T09:55:20.273Z,9.10
2018-11-10T09:57:49.550Z,9.30
2018-11-10T10:00:19.841Z,9.40
2018-11-10T10:02:49.464Z,9.50
2018-11-10T10:05:18.185Z,9.50
2018-11-10T10:07:47.363Z,9.70
2018-11-10T10:10:17.569Z,9.80
2018-11-10T10:12:46.900Z,9.70
2018-11-10T10:15:17.177Z,9.80
2018-11-10T10:17:46.597Z,9.80
2018-11-10T10:20:17.337Z,10.00
2018-11-10T10:22:47.428Z,10.20
2018-11-10T10:25:17.366Z,10.10
2018-11-10T10:27:47.285Z,10.20
2018-11-10T10:30:18.100Z,10.20
2018-11-10T10:32:48.019Z,10.20
2018-11-10T10:35:17.327Z,10.20
2018-11-10T10:37:47.333Z,10.20
2018-11-10T10:40:16.737Z,10.30
2018-11-10T10:42:46.268Z,10.40
2018-11-10T10:45:16.929Z,10.50
2018-11-10T10:47:46.172Z,10.60
2018-11-10T10:50:18.041Z,10.60
2018-11-10T10:52:47.257Z,10.70
2018-11-10T10:55:17.457Z,10.60
2018-11-10T10:57:47.561Z,10.60
2018-11-10T11:00:21.887Z,10.70
2018-11-10T11:02:56.166Z,10.80
2018-11-10T11:05:30.368Z,10.90
2018-11-10T11:07:59.542Z,10.80
2018-11-10T11:10:28.765Z,10.80
2018-11-10T11:12:57.959Z,10.90
2018-11-10T11:15:27.161Z,10.90
2018-11-10T11:17:56.246Z,10.90
2018-11-10T11:20:25.321Z,11.00
2018-11-10T11:22:54.540Z,11.00
2018-11-10T11:25:23.600Z,11.10
2018-11-10T11:27:52.640Z,11.10
2018-11-10T11:30:21.616Z,11.10
2018-11-10T11:32:50.691Z,11.10
2018-11-10T11:35:19.797Z,11.10
2018-11-10T11:37:48.783Z,11.10
2018-11-10T11:40:17.905Z,11.30
2018-11-10T11:42:47.008Z,11.50
2018-11-10T11:45:15.985Z,11.40
2018-11-10T11:47:45.081Z,11.50
2018-11-10T11:50:15.357Z,11.50
2018-11-10T11:52:45.060Z,11.50
2018-11-10T11:55:17.896Z,11.40
2018-11-10T11:57:47.175Z,11.40
2018-11-10T12:00:17.569Z,11.60
2018-11-10T12:02:47.197Z,11.60
2018-11-10T12:05:17.993Z,11.60
2018-11-10T12:07:47.412Z,11.60
2018-11-10T12:10:17.113Z,11.60
2018-11-10T12:12:46.480Z,11.60
2018-11-10T12:15:16.584Z,11.70
2018-11-10T12:17:45.697Z,11.70
2018-11-10T12:20:15.629Z,11.70
2018-11-10T12:22:44.801Z,11.90
2018-11-10T12:25:14.632Z,11.90
2018-11-10T12:27:44.421Z,11.80
2018-11-10T12:30:13.797Z,12.00
2018-11-10T12:32:42.925Z,12.00
2018-11-10T12:35:13.178Z,12.00
2018-11-10T12:37:47.045Z,12.00
2018-11-10T12:40:16.233Z,12.00
2018-11-10T12:44:44.945Z,12.10
2018-11-10T12:47:14.038Z,12.10
2018-11-10T12:49:43.228Z,12.20
2018-11-10T12:52:12.358Z,12.10
2018-11-10T12:54:41.398Z,12.10
2018-11-10T12:57:10.533Z,12.10
2018-11-10T12:59:39.717Z,12.20
2018-11-10T13:02:08.788Z,12.20
2018-11-10T13:04:37.810Z,12.30
2018-11-10T13:07:06.889Z,12.30
2018-11-10T13:09:35.973Z,12.30
2018-11-10T13:12:05.167Z,12.20
2018-11-10T13:14:34.449Z,12.10
2018-11-10T13:17:03.729Z,12.10
2018-11-10T13:19:32.900Z,12.20
2018-11-10T13:22:02.066Z,12.10
2018-11-10T13:24:31.380Z,12.00
2018-11-10T13:27:01.380Z,12.00
2018-11-10T13:29:30.492Z,12.00
2018-11-10T13:31:59.725Z,12.00
2018-11-10T13:34:28.974Z,11.90
2018-11-10T13:36:58.197Z,11.90
2018-11-10T13:39:27.257Z,11.90
2018-11-10T13:41:56.381Z,12.00
2018-11-10T13:44:25.591Z,11.90
2018-11-10T13:46:54.672Z,12.00
2018-11-10T13:49:23.753Z,12.10
2018-11-10T13:51:53.333Z,12.00
2018-11-10T13:54:22.129Z,12.00
2018-11-10T13:57:01.118Z,11.90
2018-11-10T13:59:30.367Z,11.90
2018-11-10T14:01:59.403Z,11.90
2018-11-10T14:04:28.656Z,11.90
2018-11-10T14:06:57.889Z,12.00
2018-11-10T14:09:27.076Z,12.00
2018-11-10T14:11:56.285Z,11.80
2018-11-10T14:14:25.469Z,11.80
2018-11-10T14:16:54.648Z,11.80
2018-11-10T14:19:24.788Z,12.00
2018-11-10T14:21:54.075Z,11.80
2018-11-10T14:24:24.560Z,11.80
2018-11-10T14:26:53.725Z,11.90
2018-11-10T14:29:23.090Z,11.80
2018-11-10T14:31:52.220Z,11.80
2018-11-10T14:34:21.317Z,11.80
2018-11-10T14:36:50.413Z,11.70
2018-11-10T14:39:19.469Z,11.60
2018-11-10T14:41:48.588Z,11.40
2018-11-10T14:44:17.655Z,11.40
2018-11-10T14:46:46.672Z,11.30
2018-11-10T14:49:15.857Z,11.30
2018-11-10T14:51:48.073Z,11.10
2018-11-10T14:54:24.051Z,11.10
2018-11-10T14:56:59.289Z,11.10
2018-11-10T14:59:28.157Z,11.10
2018-11-10T15:01:57.272Z,10.90
2018-11-10T15:04:26.312Z,10.90
2018-11-10T15:06:55.276Z,10.80
2018-11-10T15:09:24.152Z,10.80
2018-11-10T15:11:53.194Z,10.80
2018-11-10T15:14:21.837Z,10.80
2018-11-10T15:16:50.655Z,10.70
2018-11-10T15:19:19.477Z,10.70
2018-11-10T15:21:48.593Z,10.60
2018-11-10T15:24:19.107Z,10.60
2018-11-10T15:26:48.097Z,10.50
2018-11-10T15:29:17.629Z,10.50
2018-11-10T15:31:48.425Z,10.40
2018-11-10T15:34:17.933Z,10.30
2018-11-10T15:36:47.385Z,10.30
2018-11-10T15:39:16.660Z,10.30
2018-11-10T15:41:46.404Z,10.30
2018-11-10T15:44:16.518Z,10.20
2018-11-10T15:46:46.398Z,10.20
2018-11-10T15:49:16.666Z,10.10
2018-11-10T15:51:47.896Z,10.20
2018-11-10T15:54:18.709Z,10.10
2018-11-10T15:56:48.515Z,10.00
2018-11-10T15:59:18.002Z,9.90
2018-11-10T16:01:47.613Z,9.90
2018-11-10T16:04:16.753Z,9.80
2018-11-10T16:06:45.924Z,9.80
2018-11-10T16:09:15.054Z,9.80
2018-11-10T16:11:47.761Z,9.70
2018-11-10T16:14:17.281Z,9.70
2018-11-10T16:16:46.785Z,9.70
2018-11-10T16:19:16.385Z,9.70
2018-11-10T16:21:46.393Z,9.60
2018-11-10T16:24:15.994Z,9.50
2018-11-10T16:26:45.196Z,9.60
2018-11-10T16:29:14.840Z,9.50
2018-11-10T16:31:44.597Z,9.50
2018-11-10T16:34:14.469Z,9.50
2018-11-10T16:36:44.024Z,9.40
2018-11-10T16:39:13.340Z,9.40
2018-11-10T16:41:42.994Z,9.20
2018-11-10T16:44:12.735Z,9.20
2018-11-10T16:46:42.454Z,9.20
2018-11-10T16:49:11.449Z,9.10
2018-11-10T16:51:41.529Z,9.10
2018-11-10T16:54:11.280Z,9.10
2018-11-10T16:56:40.705Z,9.10
2018-11-10T16:59:10.341Z,9.10
2018-11-10T17:01:39.802Z,9.10
2018-11-10T17:04:09.388Z,9.00
2018-11-10T17:06:38.597Z,9.00
2018-11-10T17:09:10.859Z,8.90
2018-11-10T17:11:40.683Z,9.00
2018-11-10T17:14:11.114Z,9.00
2018-11-10T17:16:41.197Z,9.00
2018-11-10T17:19:11.358Z,9.00
2018-11-10T17:21:42.594Z,8.90
2018-11-10T17:24:12.386Z,8.90
2018-11-10T17:26:41.995Z,8.70
2018-11-10T17:29:11.459Z,8.70
2018-11-10T17:31:41.394Z,8.60
2018-11-10T17:34:11.325Z,8.60
2018-11-10T17:36:41.229Z,8.70
2018-11-10T17:39:11.310Z,8.70
2018-11-10T17:41:41.197Z,8.60
2018-11-10T17:44:10.934Z,8.60
2018-11-10T17:46:40.535Z,8.60
2018-11-10T17:49:10.237Z,8.70
2018-11-10T17:51:39.957Z,8.70
2018-11-10T17:54:09.670Z,8.40
2018-11-10T17:56:39.461Z,8.30
2018-11-10T17:59:08.889Z,8.40
2018-11-10T18:01:38.047Z,8.40
2018-11-10T18:04:07.702Z,8.30
2018-11-10T18:06:36.921Z,8.40
2018-11-10T18:09:08.165Z,8.40
2018-11-10T18:11:37.540Z,8.40
2018-11-10T18:14:07.014Z,8.40
2018-11-10T18:16:36.188Z,8.40
2018-11-10T18:19:06.607Z,8.30
2018-11-10T18:21:36.115Z,8.40
2018-11-10T18:24:05.410Z,8.30
2018-11-10T18:26:35.596Z,8.30
2018-11-10T18:29:05.564Z,8.30
2018-11-10T18:31:34.769Z,8.30
2018-11-10T18:34:04.405Z,8.30
2018-11-10T18:36:33.686Z,8.30
2018-11-10T18:39:05.164Z,8.20
2018-11-10T18:41:37.120Z,8.20
2018-11-10T18:44:06.434Z,8.20
2018-11-10T18:46:35.573Z,8.20
2018-11-10T18:49:04.838Z,8.30
2018-11-10T18:51:33.944Z,8.30
2018-11-10T18:54:04.668Z,8.40
2018-11-10T18:56:39.192Z,8.30
2018-11-10T18:59:08.634Z,8.40
2018-11-10T19:01:38.542Z,8.40
2018-11-10T19:04:07.732Z,8.40
2018-11-10T19:06:36.941Z,8.40
2018-11-10T19:09:09.641Z,8.60
2018-11-10T19:11:38.920Z,8.60
2018-11-10T19:14:08.539Z,8.50
2018-11-10T19:16:37.833Z,8.70
2018-11-10T19:19:07.837Z,8.70
2018-11-10T19:21:37.687Z,8.80
2018-11-10T19:24:07.589Z,8.70
2018-11-10T19:26:38.021Z,8.80
2018-11-10T19:29:07.794Z,8.70
2018-11-10T19:31:37.375Z,8.90
2018-11-10T19:34:07.146Z,8.80
2018-11-10T19:36:37.101Z,8.70
2018-11-10T19:39:09.202Z,8.60
2018-11-10T19:41:39.002Z,8.70
2018-11-10T19:44:10.932Z,8.70
2018-11-10T19:46:41.160Z,8.70
2018-11-10T19:49:12.126Z,8.60
2018-11-10T19:51:41.854Z,8.70
2018-11-10T19:54:11.192Z,8.70
2018-11-10T19:56:40.414Z,8.70
2018-11-10T19:59:09.830Z,8.70
2018-11-10T20:01:39.188Z,8.50
2018-11-10T20:04:08.961Z,8.50
2018-11-10T20:06:38.809Z,8.60
2018-11-10T20:09:10.181Z,8.50
2018-11-10T20:11:39.820Z,8.50
2018-11-10T20:14:09.585Z,8.50
2018-11-10T20:16:39.124Z,8.60
2018-11-10T20:19:08.725Z,8.60
2018-11-10T20:21:38.324Z,8.80
2018-11-10T20:24:07.701Z,8.80
2018-11-10T20:26:37.309Z,8.70
2018-11-10T20:29:07.053Z,8.70
2018-11-10T20:31:36.627Z,8.80
2018-11-10T20:34:06.186Z,8.80
2018-11-10T20:36:36.172Z,8.90
2018-11-10T20:39:06.972Z,8.90
2018-11-10T20:41:36.954Z,8.80
2018-11-10T20:44:06.556Z,8.90
2018-11-10T20:46:35.806Z,9.00
2018-11-10T20:49:05.357Z,9.00
2018-11-10T20:51:34.453Z,8.90
2018-11-10T20:54:05.728Z,8.80
2018-11-10T20:56:34.873Z,8.80
2018-11-10T20:59:04.209Z,8.90
2018-11-10T21:01:33.368Z,9.00
2018-11-10T21:04:02.698Z,8.90
2018-11-10T21:06:31.974Z,8.90
2018-11-10T21:09:01.193Z,8.90
2018-11-10T21:11:30.286Z,8.80
2018-11-10T21:13:59.688Z,9.00
2018-11-10T21:16:28.992Z,9.00
2018-11-10T21:18:58.298Z,9.00
2018-11-10T21:21:30.830Z,9.00
2018-11-10T21:23:59.968Z,9.00
2018-11-10T21:26:29.028Z,9.10
2018-11-10T21:28:58.055Z,8.90
2018-11-10T21:31:27.559Z,9.00
2018-11-10T21:33:56.757Z,8.90
2018-11-10T21:36:26.106Z,8.90
2018-11-10T21:38:55.229Z,9.00
2018-11-10T21:41:24.557Z,8.80
2018-11-10T21:43:53.716Z,9.00
2018-11-10T21:46:22.950Z,9.00
2018-11-10T21:48:52.116Z,8.90
2018-11-10T21:51:21.233Z,9.00
2018-11-10T21:53:50.329Z,8.90
2018-11-10T21:56:19.405Z,8.90
2018-11-10T21:58:48.633Z,8.90
2018-11-10T22:01:17.697Z,8.90
2018-11-10T22:03:46.808Z,8.80
2018-11-10T22:06:15.933Z,8.90
2018-11-10T22:08:45.134Z,8.80
2018-11-10T22:11:14.277Z,8.80
2018-11-10T22:13:43.516Z,8.80
2018-11-10T22:16:12.468Z,8.60
2018-11-10T22:18:41.844Z,8.70
2018-11-10T22:21:12.088Z,8.50
2018-11-10T22:23:42.439Z,8.50
2018-11-10T22:26:11.616Z,8.70
2018-11-10T22:28:40.733Z,8.70
2018-11-10T22:31:09.917Z,8.70
2018-11-10T22:33:38.992Z,8.70
2018-11-10T22:36:08.038Z,8.80
2018-11-10T22:38:36.995Z,8.80
2018-11-10T22:41:06.568Z,8.60
2018-11-10T22:43:37.216Z,8.70
2018-11-10T22:46:06.240Z,8.80
2018-11-10T22:48:35.409Z,8.80
2018-11-10T22:51:04.528Z,8.80
2018-11-10T22:53:33.610Z,8.60
2018-11-10T22:56:02.622Z,8.70
2018-11-10T22:58:31.696Z,8.60
2018-11-10T23:01:10.737Z,8.60
2018-11-10T23:03:40.698Z,8.50
2018-11-10T23:06:10.721Z,8.50
2018-11-10T23:08:40.060Z,8.50
2018-11-10T23:11:09.172Z,8.60
2018-11-10T23:13:38.352Z,8.60
2018-11-10T23:16:09.008Z,8.70
2018-11-10T23:18:38.064Z,8.60
2018-11-10T23:21:07.289Z,8.70
2018-11-10T23:23:36.293Z,8.70
2018-11-10T23:26:05.552Z,8.70
2018-11-10T23:28:34.786Z,8.70
2018-11-10T23:31:03.949Z,8.70
2018-11-10T23:33:32.973Z,8.70
2018-11-10T23:36:02.037Z,8.60
2018-11-10T23:38:31.364Z,8.50
2018-11-10T23:41:00.340Z,8.50
2018-11-10T23:43:29.480Z,8.40
2018-11-10T23:45:58.636Z,8.40
2018-11-10T23:48:27.608Z,8.50
2018-11-10T23:50:56.812Z,8.60
2018-11-10T23:53:25.945Z,8.60
2018-11-10T23:55:55.013Z,8.40
2018-11-10T23:58:24.124Z,8.40
